Time;durP1;ratioP1;P1;durP2;ratioP2;P2;SDS_P1;SDS_P2;PMS_P1;PMS_P2;Temp;Humidity;BMP_temperature;BMP_pressure;BME280_temperature;BME280_humidity;BME280_pressure;Samples;Min_cycle;Max_cycle;Signal;HPM_P1;HPM_P2
2022/06/01 00:00:31;;;;;;;2.52;2.15;;;10.80;99.90;;;;;;4538344;28;10001046;-75
2022/06/01 00:02:57;;;;;;;3.42;2.40;;;10.80;99.90;;;;;;5011137;28;20250;-74
2022/06/01 00:05:24;;;;;;;3.47;2.45;;;10.80;99.90;;;;;;5019691;28;20025;-74
2022/06/01 00:07:50;;;;;;;4.30;2.40;;;10.70;99.90;;;;;;5016634;28;20034;-74
2022/06/01 00:10:17;;;;;;;3.28;2.30;;;10.50;99.90;;;;;;5008712;28;20040;-74
2022/06/01 00:12:43;;;;;;;2.80;2.50;;;10.50;99.90;;;;;;5017541;28;20033;-75
2022/06/01 00:15:10;;;;;;;3.92;3.03;;;10.40;99.90;;;;;;5020330;28;20059;-74
2022/06/01 00:17:36;;;;;;;4.00;3.40;;;10.30;99.90;;;;;;5016355;28;20506;-75
2022/06/01 00:20:02;;;;;;;3.97;3.58;;;10.20;99.90;;;;;;5019735;28;20198;-74
2022/06/01 00:22:27;;;;;;;4.07;3.47;;;10.20;99.90;;;;;;5022727;28;20036;-74
2022/06/01 00:24:53;;;;;;;5.88;4.40;;;10.10;99.90;;;;;;5018731;28;20410;-74
2022/06/01 00:27:19;;;;;;;5.95;3.95;;;10.10;99.90;;;;;;5020273;28;20034;-74
2022/06/01 00:29:44;;;;;;;6.32;3.42;;;10.10;99.90;;;;;;5014849;28;20056;-75
2022/06/01 00:32:12;;;;;;;5.95;3.55;;;10.00;99.90;;;;;;5022270;28;20045;-74
2022/06/01 00:34:39;;;;;;;3.72;3.42;;;10.00;99.90;;;;;;5015229;28;20681;-74
2022/06/01 00:37:05;;;;;;;3.67;3.33;;;10.00;99.90;;;;;;5016969;28;20183;-75
2022/06/01 00:39:31;;;;;;;3.25;2.70;;;10.00;99.90;;;;;;5016571;28;20053;-74
2022/06/01 00:42:12;;;;;;;3.30;2.97;;;10.00;99.90;;;;;;5021056;28;20480;-74
2022/06/01 00:44:38;;;;;;;3.53;3.22;;;10.00;99.90;;;;;;5017070;28;20025;-75
2022/06/01 00:47:04;;;;;;;4.03;3.63;;;10.00;99.90;;;;;;5017233;28;20378;-74
2022/06/01 00:49:31;;;;;;;3.55;3.13;;;10.00;99.90;;;;;;5001140;28;20496;-74
2022/06/01 00:51:57;;;;;;;4.13;3.42;;;10.00;99.90;;;;;;5012197;28;20049;-74
2022/06/01 00:54:22;;;;;;;3.45;3.15;;;10.00;99.90;;;;;;5011419;28;20096;-75
2022/06/01 00:56:53;;;;;;;6.45;3.90;;;10.10;99.90;;;;;;5014969;28;20349;-74
2022/06/01 00:59:22;;;;;;;8.95;4.10;;;10.10;99.90;;;;;;5015890;28;20088;-74
2022/06/01 01:01:49;;;;;;;6.57;3.90;;;10.10;99.90;;;;;;5014812;28;20025;-74
2022/06/01 01:04:15;;;;;;;4.93;4.00;;;10.10;99.90;;;;;;5020674;28;20022;-74
2022/06/01 01:06:43;;;;;;;4.63;4.20;;;10.10;99.90;;;;;;5024473;28;20201;-75
2022/06/01 01:09:10;;;;;;;6.65;5.18;;;10.10;99.90;;;;;;5017180;28;20529;-74
2022/06/01 01:11:46;;;;;;;9.40;5.43;;;10.10;99.90;;;;;;5016611;28;20037;-74
2022/06/01 01:14:14;;;;;;;6.20;4.72;;;10.10;99.90;;;;;;5016675;28;20785;-73
2022/06/01 01:16:39;;;;;;;6.13;4.32;;;10.10;99.90;;;;;;5021613;28;20034;-74
2022/06/01 01:19:16;;;;;;;6.15;3.92;;;10.10;99.90;;;;;;5017199;28;20131;-73
2022/06/01 01:22:01;;;;;;;5.72;4.20;;;10.00;99.90;;;;;;5018689;28;20049;-74
2022/06/01 01:24:38;;;;;;;8.85;4.40;;;10.00;99.90;;;;;;5019978;28;20778;-75
2022/06/01 01:27:04;;;;;;;4.80;3.80;;;9.90;99.90;;;;;;5015996;28;20116;-74
2022/06/01 01:29:36;;;;;;;4.97;3.83;;;9.90;99.90;;;;;;5016858;28;20123;-74
2022/06/01 01:32:05;;;;;;;5.85;4.30;;;9.90;99.90;;;;;;5017513;28;20988;-75
2022/06/01 01:34:31;;;;;;;4.43;3.85;;;10.00;99.90;;;;;;5017481;28;20385;-74
2022/06/01 01:37:01;;;;;;;4.30;3.53;;;10.10;99.90;;;;;;5022870;28;20034;-75
2022/06/01 01:39:30;;;;;;;6.50;4.30;;;10.20;99.90;;;;;;5019016;28;20057;-74
2022/06/01 01:41:56;;;;;;;5.70;4.28;;;10.30;99.90;;;;;;5017581;28;20033;-75
2022/06/01 01:44:22;;;;;;;6.18;4.47;;;10.40;99.90;;;;;;5020536;28;20029;-74
2022/06/01 01:46:49;;;;;;;6.57;5.03;;;10.40;99.90;;;;;;5022012;28;20049;-75
2022/06/01 01:49:21;;;;;;;6.07;5.47;;;10.50;99.90;;;;;;5018613;28;20028;-75
2022/06/01 01:51:47;;;;;;;3.95;3.60;;;10.50;99.90;;;;;;5015779;28;20117;-75
2022/06/01 01:54:35;;;;;;;5.88;5.28;;;10.40;99.90;;;;;;5021525;28;20037;-75
2022/06/01 01:57:03;;;;;;;5.22;4.60;;;10.50;99.90;;;;;;5018903;28;20036;-75
2022/06/01 01:59:30;;;;;;;7.35;4.85;;;10.50;99.90;;;;;;5016687;28;20024;-75
2022/06/01 02:02:32;;;;;;;5.28;4.78;;;10.50;99.90;;;;;;5018815;28;20068;-75
2022/06/01 02:08:09;;;;;;;6.53;5.65;;;10.40;99.90;;;;;;5015420;28;20068;-74
2022/06/01 02:13:21;;;;;;;5.32;4.82;;;10.30;99.90;;;;;;5016799;28;20036;-75
2022/06/01 02:15:49;;;;;;;4.88;4.45;;;10.30;99.90;;;;;;5024308;28;20034;-74
2022/06/01 02:18:29;;;;;;;5.55;5.05;;;10.20;99.90;;;;;;5009414;28;20088;-74
2022/06/01 02:21:02;;;;;;;5.72;4.60;;;10.20;99.90;;;;;;5019564;28;20030;-74
2022/06/01 02:23:31;;;;;;;5.50;4.78;;;10.10;99.90;;;;;;5017990;28;20278;-74
2022/06/01 02:25:59;;;;;;;5.53;4.70;;;10.10;99.90;;;;;;5010983;28;20030;-73
2022/06/01 02:28:26;;;;;;;7.53;4.95;;;10.10;99.90;;;;;;5017320;28;20052;-74
2022/06/01 02:30:54;;;;;;;5.85;4.80;;;10.10;99.90;;;;;;5021393;28;20040;-74
2022/06/01 02:33:23;;;;;;;6.00;5.05;;;10.10;99.90;;;;;;5020657;28;20263;-73
2022/06/01 02:35:52;;;;;;;6.95;4.82;;;10.10;99.90;;;;;;5014817;28;20030;-73
2022/06/01 02:38:26;;;;;;;5.50;4.82;;;10.10;99.90;;;;;;5018826;28;20038;-73
2022/06/01 02:40:52;;;;;;;6.50;5.13;;;10.00;99.90;;;;;;5023587;28;20546;-73
2022/06/01 02:43:18;;;;;;;6.20;4.85;;;10.00;99.90;;;;;;5012544;28;20029;-73
2022/06/01 02:45:44;;;;;;;5.90;5.00;;;9.90;99.90;;;;;;5022973;28;20351;-73
2022/06/01 02:48:10;;;;;;;4.70;4.30;;;9.90;99.90;;;;;;5020127;28;20025;-73
2022/06/01 02:50:36;;;;;;;4.95;4.43;;;9.90;99.90;;;;;;5012020;28;20113;-73
2022/06/01 02:53:03;;;;;;;5.10;4.57;;;9.90;99.90;;;;;;5013664;28;20513;-74
2022/06/01 02:55:30;;;;;;;6.70;5.70;;;9.90;99.90;;;;;;5015121;28;20404;-73
2022/06/01 02:57:56;;;;;;;6.80;5.70;;;10.00;99.90;;;;;;5016841;28;20040;-73
2022/06/01 03:00:35;;;;;;;6.22;5.63;;;10.00;99.90;;;;;;5010012;28;20028;-73
2022/06/01 03:03:02;;;;;;;7.03;5.20;;;9.90;99.90;;;;;;5018664;28;20055;-73
2022/06/01 03:05:34;;;;;;;5.70;4.68;;;10.00;99.90;;;;;;5018479;28;20040;-73
2022/06/01 03:08:00;;;;;;;6.38;4.95;;;10.00;99.90;;;;;;5013718;28;20364;-73
2022/06/01 03:10:26;;;;;;;5.05;4.55;;;10.00;99.90;;;;;;5018107;28;20105;-74
2022/06/01 03:12:52;;;;;;;5.57;4.70;;;10.00;99.90;;;;;;5017508;28;20045;-74
2022/06/01 03:15:20;;;;;;;5.75;5.20;;;10.00;99.90;;;;;;5015039;28;20563;-73
2022/06/01 03:17:46;;;;;;;7.00;5.28;;;10.00;99.90;;;;;;5009114;28;20022;-73
2022/06/01 03:20:15;;;;;;;5.35;4.85;;;10.00;99.90;;;;;;5019446;28;20427;-74
2022/06/01 03:22:43;;;;;;;6.60;5.65;;;9.90;99.90;;;;;;5020703;28;20178;-73
2022/06/01 03:25:13;;;;;;;6.53;5.60;;;10.00;99.90;;;;;;5021837;28;20478;-73
2022/06/01 03:27:38;;;;;;;6.20;5.43;;;9.90;99.90;;;;;;5019539;28;20095;-73
2022/06/01 03:30:06;;;;;;;6.35;5.75;;;9.90;99.90;;;;;;5009951;28;20025;-74
2022/06/01 03:32:32;;;;;;;6.03;5.43;;;9.90;99.90;;;;;;5017646;28;20034;-73
2022/06/01 03:34:57;;;;;;;6.38;5.15;;;9.90;99.90;;;;;;5017801;28;20401;-74
2022/06/01 03:37:23;;;;;;;5.45;4.82;;;9.90;99.90;;;;;;5020550;28;20033;-73
2022/06/01 03:39:48;;;;;;;6.43;5.40;;;9.90;99.90;;;;;;5012031;28;20026;-73
2022/06/01 03:42:14;;;;;;;15.55;6.03;;;9.90;99.90;;;;;;5021391;28;20025;-73
2022/06/01 03:47:24;;;;;;;6.85;5.90;;;9.80;99.90;;;;;;5018345;28;20083;-73
2022/06/01 03:49:49;;;;;;;6.10;5.50;;;9.80;99.90;;;;;;5016867;28;20042;-73
2022/06/01 03:52:15;;;;;;;6.10;5.50;;;9.90;99.90;;;;;;5017843;28;20429;-73
2022/06/01 03:54:40;;;;;;;8.73;5.43;;;9.90;99.90;;;;;;5011166;28;20038;-73
2022/06/01 03:57:07;;;;;;;5.65;5.15;;;9.90;99.90;;;;;;5005033;28;20116;-73
2022/06/01 03:59:33;;;;;;;6.07;5.43;;;9.90;99.90;;;;;;5003376;28;20038;-73
2022/06/01 04:02:03;;;;;;;8.38;5.57;;;9.90;99.90;;;;;;5017651;28;20026;-71
2022/06/01 04:04:29;;;;;;;5.78;5.28;;;9.90;99.90;;;;;;5020241;28;20044;-72
2022/06/01 04:06:54;;;;;;;5.57;5.05;;;10.00;99.90;;;;;;5008544;28;20026;-72
2022/06/01 04:09:20;;;;;;;5.28;4.78;;;10.00;99.90;;;;;;5007221;28;20021;-72
2022/06/01 04:11:46;;;;;;;5.05;4.40;;;10.10;99.90;;;;;;5005402;28;20030;-73
2022/06/01 04:14:11;;;;;;;6.38;4.70;;;10.10;99.90;;;;;;5011172;28;20056;-72
2022/06/01 04:16:37;;;;;;;5.43;4.80;;;10.10;99.90;;;;;;5023512;28;20060;-72
2022/06/01 04:19:03;;;;;;;4.95;4.45;;;10.10;99.90;;;;;;5022060;28;20087;-72
2022/06/01 04:21:34;;;;;;;5.53;4.97;;;10.10;99.90;;;;;;5020899;28;20458;-71
2022/06/01 04:24:02;;;;;;;5.40;4.90;;;10.20;99.90;;;;;;5017015;28;20022;-72
2022/06/01 04:26:28;;;;;;;6.22;5.15;;;10.20;99.90;;;;;;5009655;28;20137;-72
2022/06/01 04:28:54;;;;;;;7.15;5.35;;;10.20;99.90;;;;;;5001978;28;20128;-72
2022/06/01 04:31:20;;;;;;;5.82;4.63;;;10.20;99.90;;;;;;5019924;28;20029;-72
2022/06/01 04:33:46;;;;;;;5.28;4.78;;;10.30;99.90;;;;;;5014907;28;20155;-70
2022/06/01 04:36:11;;;;;;;5.53;4.88;;;10.30;99.90;;;;;;5021986;28;20512;-71
2022/06/01 04:38:37;;;;;;;6.13;4.75;;;10.30;99.90;;;;;;5018697;28;20025;-71
2022/06/01 04:41:03;;;;;;;7.95;5.13;;;10.30;99.90;;;;;;5021167;28;20437;-71
2022/06/01 04:43:28;;;;;;;5.82;5.22;;;10.30;99.90;;;;;;5012561;28;20045;-71
2022/06/01 04:45:56;;;;;;;10.13;5.35;;;10.40;99.90;;;;;;5018424;28;20091;-68
2022/06/01 04:48:23;;;;;;;7.40;5.45;;;10.40;99.90;;;;;;5010040;28;20512;-70
2022/06/01 04:50:50;;;;;;;5.80;5.20;;;10.40;99.90;;;;;;5011531;28;20068;-70
2022/06/01 04:53:16;;;;;;;8.63;4.70;;;10.40;99.90;;;;;;5009550;28;20083;-70
2022/06/01 04:55:44;;;;;;;6.15;5.55;;;10.50;99.90;;;;;;5017733;28;20375;-69
2022/06/01 04:58:10;;;;;;;6.35;5.60;;;10.50;99.90;;;;;;5006664;28;20112;-69
2022/06/01 05:00:37;;;;;;;7.22;5.68;;;10.50;99.90;;;;;;5004164;28;20030;-69
2022/06/01 05:03:04;;;;;;;7.30;5.03;;;10.50;99.90;;;;;;5016273;28;20026;-69
2022/06/01 05:05:30;;;;;;;5.40;4.90;;;10.60;99.90;;;;;;5026061;28;20030;-70
2022/06/01 05:07:56;;;;;;;5.95;5.30;;;10.60;99.90;;;;;;5013169;28;20026;-69
2022/06/01 05:10:22;;;;;;;6.03;5.20;;;10.60;99.90;;;;;;5018645;28;20043;-69
2022/06/01 05:12:48;;;;;;;8.15;6.10;;;10.60;99.90;;;;;;5024725;28;20071;-70
2022/06/01 05:15:14;;;;;;;6.88;5.30;;;10.70;99.90;;;;;;5012290;28;20133;-69
2022/06/01 05:17:40;;;;;;;7.20;5.32;;;10.70;99.90;;;;;;5024837;28;20044;-70
2022/06/01 05:20:06;;;;;;;5.60;4.78;;;10.80;99.90;;;;;;5023136;28;20105;-69
2022/06/01 05:22:32;;;;;;;5.35;4.85;;;10.80;99.90;;;;;;5021622;28;20017;-70
2022/06/01 05:24:57;;;;;;;7.28;5.10;;;10.90;99.90;;;;;;5013110;28;20515;-69
2022/06/01 05:27:23;;;;;;;5.10;4.60;;;10.90;99.90;;;;;;5019644;28;20551;-69
2022/06/01 05:29:50;;;;;;;5.60;5.10;;;10.90;99.90;;;;;;5021076;28;20075;-69
2022/06/01 05:32:17;;;;;;;6.15;4.70;;;11.10;99.90;;;;;;5021890;28;20029;-69
2022/06/01 05:34:42;;;;;;;6.50;4.43;;;11.30;99.90;;;;;;5016682;28;20026;-69
2022/06/01 05:37:08;;;;;;;5.88;4.45;;;11.60;99.90;;;;;;5017757;28;20044;-70
2022/06/01 05:39:34;;;;;;;4.82;4.43;;;11.80;99.90;;;;;;5020777;28;20036;-70
2022/06/01 05:41:59;;;;;;;6.38;4.70;;;12.00;99.90;;;;;;5024687;28;20034;-70
2022/06/01 05:44:25;;;;;;;5.20;4.57;;;12.20;99.90;;;;;;5017193;28;20034;-69
2022/06/01 05:46:58;;;;;;;6.18;4.20;;;12.40;99.90;;;;;;5021355;28;20037;-69
2022/06/01 05:49:23;;;;;;;7.45;4.22;;;12.60;99.90;;;;;;5012442;28;20692;-70
2022/06/01 05:51:49;;;;;;;4.35;4.00;;;12.60;99.90;;;;;;5015833;28;20053;-70
2022/06/01 05:54:15;;;;;;;7.43;3.97;;;12.60;99.90;;;;;;5024250;28;20385;-70
2022/06/01 05:56:40;;;;;;;3.90;3.40;;;12.40;99.90;;;;;;5010645;28;20025;-70
2022/06/01 05:59:06;;;;;;;4.03;3.60;;;12.50;99.90;;;;;;5021385;28;20042;-70
2022/06/01 06:01:31;;;;;;;7.97;3.65;;;12.50;99.90;;;;;;5024138;28;20021;-70
2022/06/01 06:03:57;;;;;;;3.88;3.58;;;12.50;99.90;;;;;;5022577;28;20029;-70
2022/06/01 06:06:23;;;;;;;3.67;3.38;;;12.60;99.90;;;;;;5019824;28;20037;-70
2022/06/01 06:08:55;;;;;;;4.43;3.42;;;12.70;99.90;;;;;;5014735;28;20286;-70
2022/06/01 06:11:23;;;;;;;3.55;3.15;;;12.70;99.90;;;;;;5017882;28;20053;-70
2022/06/01 06:13:48;;;;;;;5.18;3.60;;;12.80;99.90;;;;;;5005039;28;20092;-69
2022/06/01 06:16:16;;;;;;;5.10;3.40;;;13.00;99.90;;;;;;5019461;28;20061;-70
2022/06/01 06:18:41;;;;;;;3.20;2.80;;;13.00;99.90;;;;;;5021750;28;20417;-70
2022/06/01 06:21:07;;;;;;;4.35;3.95;;;13.00;99.90;;;;;;5017197;28;20029;-70
2022/06/01 06:23:33;;;;;;;4.22;3.47;;;13.10;99.90;;;;;;5017205;28;20167;-70
2022/06/01 06:25:59;;;;;;;3.28;2.97;;;13.20;99.90;;;;;;5010402;28;20079;-70
2022/06/01 06:28:25;;;;;;;3.83;2.97;;;13.40;99.90;;;;;;5021328;28;20120;-70
2022/06/01 06:30:51;;;;;;;2.92;2.67;;;13.50;99.90;;;;;;5025384;28;20041;-70
2022/06/01 06:33:17;;;;;;;3.10;2.90;;;13.60;99.90;;;;;;5017505;28;20529;-70
2022/06/01 06:35:44;;;;;;;4.07;2.67;;;13.70;99.90;;;;;;5016546;28;20080;-69
2022/06/01 06:38:10;;;;;;;3.60;2.90;;;14.00;99.90;;;;;;5021382;28;20314;-70
2022/06/01 06:40:37;;;;;;;4.57;2.90;;;14.20;99.90;;;;;;5017884;28;20029;-70
2022/06/01 06:43:03;;;;;;;3.38;3.08;;;14.40;99.90;;;;;;5022802;28;20485;-70
2022/06/01 06:45:28;;;;;;;4.72;3.58;;;14.50;99.90;;;;;;5021106;28;20100;-70
2022/06/01 06:47:54;;;;;;;5.35;3.67;;;14.50;99.90;;;;;;5005488;28;20038;-70
2022/06/01 06:50:22;;;;;;;4.82;4.05;;;14.70;99.90;;;;;;5014851;28;20481;-71
2022/06/01 06:52:48;;;;;;;4.20;3.80;;;14.80;99.90;;;;;;5023850;28;20291;-71
2022/06/01 06:55:14;;;;;;;5.88;2.88;;;14.90;99.90;;;;;;5021797;28;20028;-71
2022/06/01 06:57:40;;;;;;;2.90;2.70;;;15.10;99.90;;;;;;5013237;28;20036;-71
2022/06/01 07:00:09;;;;;;;3.78;2.97;;;15.10;99.90;;;;;;5014740;28;20025;-71
2022/06/01 07:02:38;;;;;;;4.70;3.08;;;15.20;99.90;;;;;;5015880;28;20026;-70
2022/06/01 07:05:04;;;;;;;4.75;3.65;;;15.20;99.90;;;;;;5010375;28;20217;-71
2022/06/01 07:07:31;;;;;;;4.22;3.83;;;15.30;99.90;;;;;;5016401;28;20259;-71
2022/06/01 07:09:56;;;;;;;3.45;2.90;;;15.40;99.90;;;;;;5005337;28;20036;-71
2022/06/01 07:12:22;;;;;;;4.25;2.90;;;15.50;99.90;;;;;;5018526;28;20029;-70
2022/06/01 07:14:48;;;;;;;5.18;3.42;;;15.70;99.90;;;;;;5012187;28;20836;-71
2022/06/01 07:17:13;;;;;;;6.63;3.10;;;15.80;99.90;;;;;;5018004;28;20038;-71
2022/06/01 07:19:39;;;;;;;3.00;2.50;;;15.90;99.90;;;;;;5021835;28;20381;-71
2022/06/01 07:22:04;;;;;;;2.90;2.70;;;16.10;99.90;;;;;;5024398;28;20029;-71
2022/06/01 07:24:30;;;;;;;5.60;2.60;;;16.20;99.90;;;;;;5016051;28;20030;-70
2022/06/01 07:26:55;;;;;;;3.97;2.80;;;16.40;99.90;;;;;;5024418;28;20266;-71
2022/06/01 07:29:21;;;;;;;3.22;2.30;;;16.50;99.90;;;;;;5016332;28;20322;-71
2022/06/01 07:31:50;;;;;;;3.92;2.72;;;16.60;99.90;;;;;;5008108;28;20025;-71
2022/06/01 07:34:17;;;;;;;3.30;2.78;;;16.80;99.90;;;;;;5015537;28;20078;-71
2022/06/01 07:36:45;;;;;;;5.70;2.70;;;17.00;99.90;;;;;;5017394;28;20029;-71
2022/06/01 07:44:49;;;;;;;2.85;2.60;;;17.10;99.90;;;;;;5009728;28;20036;-71
2022/06/01 07:47:16;;;;;;;2.80;2.50;;;17.30;99.90;;;;;;5013179;28;20083;-71
2022/06/01 07:49:42;;;;;;;3.60;2.55;;;17.30;99.90;;;;;;5006984;28;21516;-71
2022/06/01 07:52:09;;;;;;;3.05;2.50;;;17.40;99.90;;;;;;5009302;28;20036;-71
2022/06/01 07:54:42;;;;;;;3.55;2.40;;;17.60;99.90;;;;;;5014347;28;20474;-71
2022/06/01 07:57:10;;;;;;;3.38;2.38;;;17.80;99.90;;;;;;5020223;28;20065;-71
2022/06/01 07:59:36;;;;;;;3.35;2.20;;;18.00;99.90;;;;;;5019167;28;20097;-71
2022/06/01 08:02:05;;;;;;;3.28;2.33;;;18.20;99.90;;;;;;5017606;28;20117;-71
2022/06/01 08:04:32;;;;;;;5.03;2.40;;;18.20;99.90;;;;;;5014252;28;20025;-71
2022/06/01 08:06:57;;;;;;;3.55;2.17;;;18.40;99.90;;;;;;5011251;28;20038;-71
2022/06/01 08:09:24;;;;;;;2.38;1.90;;;18.30;99.90;;;;;;5003272;28;20088;-72
2022/06/01 08:14:33;;;;;;;2.95;2.00;;;17.90;99.90;;;;;;5019351;28;20385;-71
2022/06/01 08:16:59;;;;;;;5.47;2.50;;;17.60;99.90;;;;;;5015375;28;20029;-72
2022/06/01 08:19:25;;;;;;;2.08;1.88;;;17.20;99.90;;;;;;5014930;28;20393;-73
2022/06/01 08:21:50;;;;;;;3.67;1.80;;;17.00;99.90;;;;;;5029576;28;20034;-73
2022/06/01 08:24:16;;;;;;;5.32;1.80;;;16.70;99.90;;;;;;5019481;28;20326;-73
2022/06/01 08:26:41;;;;;;;1.65;1.55;;;16.40;99.90;;;;;;5023128;28;20223;-73
2022/06/01 08:29:07;;;;;;;1.52;1.42;;;16.20;99.90;;;;;;5002546;28;20137;-74
2022/06/01 08:31:34;;;;;;;2.80;2.00;;;16.20;99.90;;;;;;5011136;28;20255;-74
2022/06/01 08:34:02;;;;;;;2.88;2.05;;;16.50;99.90;;;;;;5023314;28;20353;-73
2022/06/01 08:36:28;;;;;;;2.47;1.92;;;16.90;99.90;;;;;;5023304;28;20108;-72
2022/06/01 08:38:54;;;;;;;3.88;1.85;;;17.20;99.90;;;;;;5017323;28;20307;-73
2022/06/01 08:41:24;;;;;;;2.33;1.77;;;17.30;99.90;;;;;;5023813;28;20025;-73
2022/06/01 08:43:55;;;;;;;2.58;1.80;;;17.60;99.90;;;;;;5008522;28;20427;-73
2022/06/01 08:46:22;;;;;;;4.05;1.63;;;17.80;99.90;;;;;;5014532;28;20049;-73
2022/06/01 08:49:12;;;;;;;2.53;1.73;;;18.20;99.90;;;;;;5022546;28;20139;-73
2022/06/01 08:51:38;;;;;;;3.08;1.65;;;18.50;99.90;;;;;;5009129;28;20038;-73
2022/06/01 08:54:04;;;;;;;3.15;1.40;;;18.90;99.90;;;;;;5012728;28;20032;-73
2022/06/01 08:56:39;;;;;;;2.30;1.10;;;19.10;99.90;;;;;;5018836;28;20064;-73
2022/06/01 08:59:26;;;;;;;2.58;1.23;;;19.20;99.90;;;;;;5022406;28;20093;-73
2022/06/01 09:02:07;;;;;;;3.53;1.60;;;19.50;99.90;;;;;;5025097;28;20048;-73
2022/06/01 09:04:55;;;;;;;3.88;1.40;;;19.70;99.90;;;;;;5025706;28;20071;-74
2022/06/01 09:07:23;;;;;;;2.65;1.50;;;19.80;99.70;;;;;;5020619;28;20021;-74
2022/06/01 09:10:10;;;;;;;1.83;1.30;;;19.90;99.00;;;;;;5024749;28;20037;-74
2022/06/01 09:12:37;;;;;;;2.33;1.30;;;19.70;94.60;;;;;;5021997;28;20587;-74
2022/06/01 09:15:26;;;;;;;3.35;1.35;;;19.50;99.00;;;;;;5018794;28;20037;-74
2022/06/01 09:17:54;;;;;;;1.98;1.27;;;19.50;99.90;;;;;;5027590;28;20237;-74
2022/06/01 09:23:13;;;;;;;3.17;1.38;;;19.30;99.90;;;;;;5019485;28;20128;-74
2022/06/01 09:25:48;;;;;;;2.00;1.20;;;19.10;96.50;;;;;;5023858;28;20025;-74
2022/06/01 09:28:23;;;;;;;1.50;1.40;;;19.00;99.50;;;;;;5025917;28;20022;-74
2022/06/01 09:31:08;;;;;;;1.92;1.27;;;19.00;99.50;;;;;;5017453;28;20029;-74
2022/06/01 09:33:37;;;;;;;1.75;1.40;;;19.00;99.50;;;;;;5012199;28;20100;-74
2022/06/01 09:36:09;;;;;;;2.65;1.20;;;19.10;99.90;;;;;;5012480;28;20042;-74
2022/06/01 09:38:48;;;;;;;3.60;1.10;;;19.10;99.90;;;;;;5022214;28;20028;-74
2022/06/01 09:41:21;;;;;;;1.92;1.10;;;19.00;99.90;;;;;;5015750;28;20067;-74
2022/06/01 09:43:50;;;;;;;3.08;1.20;;;18.80;99.90;;;;;;5007835;28;20393;-74
2022/06/01 09:46:24;;;;;;;2.65;1.25;;;18.70;99.90;;;;;;5025923;28;20109;-75
2022/06/01 09:48:50;;;;;;;1.45;1.00;;;18.50;99.90;;;;;;5004674;28;20022;-74
2022/06/01 09:51:22;;;;;;;1.27;1.00;;;18.40;99.90;;;;;;5011177;28;20046;-74
2022/06/01 09:53:50;;;;;;;2.95;1.30;;;18.40;99.90;;;;;;5010725;28;20030;-74
2022/06/01 09:56:31;;;;;;;3.20;1.30;;;18.70;99.90;;;;;;5020125;28;20258;-74
2022/06/01 10:07:36;;;;;;;1.30;1.02;;;19.40;98.10;;;;;;5019504;28;20052;-79
2022/06/01 10:10:04;;;;;;;4.32;1.42;;;19.40;99.90;;;;;;5022389;28;20055;-79
2022/06/01 10:12:44;;;;;;;3.22;1.10;;;19.20;94.70;;;;;;5016659;28;20029;-78
2022/06/01 10:15:51;;;;;;;3.55;1.20;;;19.20;95.80;;;;;;5015614;28;20025;-81
2022/06/01 10:18:23;;;;;;;1.08;0.90;;;19.10;93.80;;;;;;5013175;28;20389;-80
2022/06/01 10:20:59;;;;;;;1.43;1.20;;;18.90;96.40;;;;;;5019157;28;20437;-80
2022/06/01 10:23:48;;;;;;;1.85;0.90;;;18.70;96.90;;;;;;5019298;28;20044;-79
2022/06/01 10:26:19;;;;;;;1.55;1.10;;;18.50;96.00;;;;;;5026079;28;20029;-80
2022/06/01 10:28:50;;;;;;;2.10;1.20;;;18.30;97.00;;;;;;5020818;28;20377;-79
2022/06/01 10:31:47;;;;;;;1.27;1.10;;;18.20;96.00;;;;;;5011240;28;21261;-80
2022/06/01 10:34:25;;;;;;;2.60;1.23;;;18.20;97.00;;;;;;5012712;28;20520;-80
2022/06/01 10:37:20;;;;;;;2.38;1.30;;;18.30;96.00;;;;;;5010864;28;20045;-80
2022/06/01 10:40:01;;;;;;;1.63;1.10;;;18.80;96.00;;;;;;4667461;28;10000623;-80
2022/06/01 10:45:16;;;;;;;1.13;1.00;;;19.20;93.80;;;;;;5011194;28;20509;-80
2022/06/01 10:48:05;;;;;;;1.25;1.10;;;19.30;94.80;;;;;;5014722;28;20033;-82
2022/06/01 10:50:37;;;;;;;1.45;1.35;;;19.30;95.60;;;;;;5008850;28;20025;-82
2022/06/01 10:53:19;;;;;;;2.33;1.10;;;19.30;95.00;;;;;;5016353;28;20032;-81
2022/06/01 10:55:45;;;;;;;1.83;1.15;;;19.40;95.80;;;;;;5013081;28;20326;-81
2022/06/01 10:58:31;;;;;;;2.38;1.27;;;19.60;93.80;;;;;;5009242;28;20029;-81
2022/06/01 11:01:13;;;;;;;3.20;1.00;;;19.70;92.40;;;;;;5017229;28;20036;-82
2022/06/01 11:04:10;;;;;;;1.75;0.95;;;19.90;91.50;;;;;;5010946;28;20153;-82
2022/06/01 11:06:57;;;;;;;3.80;1.20;;;20.30;89.80;;;;;;5013273;28;20025;-82
2022/06/01 11:09:32;;;;;;;1.00;0.90;;;20.40;86.50;;;;;;5013721;28;20038;-82
2022/06/01 11:12:15;;;;;;;1.55;1.00;;;20.20;83.90;;;;;;5012942;28;20065;-82
2022/06/01 11:14:41;;;;;;;;;;;20.10;87.00;;;;;;5020313;28;20619;-82
2022/06/01 11:17:24;;;;;;;1.02;0.70;;;19.90;90.30;;;;;;5010807;28;19916;-81
2022/06/01 11:19:59;;;;;;;4.05;0.90;;;19.80;88.00;;;;;;5013888;28;20026;-83
2022/06/01 11:22:52;;;;;;;3.38;0.90;;;19.60;88.00;;;;;;5020565;28;20256;-82
2022/06/01 11:25:18;;;;;;;;;;;19.40;91.10;;;;;;5010478;28;20092;-82
2022/06/01 11:28:16;;;;;;;1.00;0.77;;;19.30;90.30;;;;;;5022236;28;19916;-82
2022/06/01 11:30:56;;;;;;;1.08;0.88;;;19.20;91.60;;;;;;5008044;28;20329;-82
2022/06/01 11:33:35;;;;;;;1.02;1.00;;;19.10;91.10;;;;;;5002376;28;20045;-82
2022/06/01 11:36:19;;;;;;;1.42;0.90;;;19.00;90.60;;;;;;5007744;28;20592;-82
2022/06/01 11:38:54;;;;;;;2.42;0.80;;;19.00;90.30;;;;;;5018369;28;20493;-82
2022/06/01 11:41:24;;;;;;;1.75;1.00;;;18.90;90.00;;;;;;5021494;28;20800;-82
2022/06/01 11:44:04;;;;;;;4.20;1.20;;;18.90;89.40;;;;;;5019921;28;20017;-83
2022/06/01 11:46:39;;;;;;;1.25;1.10;;;18.80;90.00;;;;;;5017183;28;20042;-85
2022/06/01 11:49:12;;;;;;;1.38;1.02;;;18.80;90.00;;;;;;5018608;28;20322;-83
2022/06/01 11:51:38;;;;;;;2.35;1.10;;;18.70;90.70;;;;;;5018940;28;20040;-84
2022/06/01 11:54:14;;;;;;;1.73;0.90;;;18.70;90.50;;;;;;5013298;28;20033;-83
2022/06/01 11:57:17;;;;;;;0.90;0.80;;;19.10;89.70;;;;;;5007979;28;20039;-80
2022/06/01 11:59:47;;;;;;;1.13;0.93;;;19.80;89.10;;;;;;5006967;28;20213;-81
2022/06/01 12:02:43;;;;;;;1.42;1.00;;;20.40;90.20;;;;;;5015081;28;20034;-81
2022/06/01 12:05:19;;;;;;;2.53;1.00;;;20.80;83.90;;;;;;5009821;28;20551;-80
2022/06/01 12:08:16;;;;;;;2.75;1.00;;;20.80;78.20;;;;;;5015694;28;20302;-80
2022/06/01 12:10:58;;;;;;;3.08;1.00;;;20.50;81.40;;;;;;5010228;28;20219;-79
2022/06/01 12:13:50;;;;;;;1.70;1.00;;;20.20;81.20;;;;;;5002291;28;20038;-80
2022/06/01 12:16:20;;;;;;;2.03;1.10;;;19.80;85.50;;;;;;5014317;28;20033;-82
2022/06/01 12:19:08;;;;;;;1.77;0.90;;;19.50;88.10;;;;;;5018224;28;20038;-80
2022/06/01 12:21:36;;;;;;;2.72;1.02;;;19.40;90.00;;;;;;5009300;28;20033;-80
2022/06/01 12:30:16;;;;;;;1.40;0.90;;;19.20;89.50;;;;;;5008619;28;20088;-80
2022/06/01 12:33:09;;;;;;;1.02;0.90;;;19.10;87.00;;;;;;5017421;28;20049;-80
2022/06/01 12:35:54;;;;;;;1.50;1.10;;;19.10;86.20;;;;;;5005059;28;20188;-80
2022/06/01 12:38:33;;;;;;;1.38;0.93;;;19.10;88.10;;;;;;5004676;28;20041;-82
2022/06/01 12:41:04;;;;;;;2.97;1.10;;;19.10;86.90;;;;;;5006113;28;20026;-84
2022/06/01 12:43:30;;;;;;;2.78;1.08;;;19.20;87.80;;;;;;5013249;28;20147;-87
2022/06/01 12:45:56;;;;;;;1.20;1.10;;;19.30;86.70;;;;;;5015125;28;20028;-80
2022/06/01 12:48:23;;;;;;;1.80;1.20;;;19.40;87.50;;;;;;5015068;28;20040;-81
2022/06/01 12:50:51;;;;;;;1.55;1.15;;;19.60;87.40;;;;;;5009414;28;20038;-80
2022/06/01 12:53:21;;;;;;;1.15;1.00;;;19.60;85.00;;;;;;5018382;28;20022;-80
2022/06/01 12:55:47;;;;;;;3.30;1.10;;;19.60;81.70;;;;;;5012709;28;20041;-80
2022/06/01 12:58:15;;;;;;;1.58;1.10;;;19.60;82.60;;;;;;5013494;28;20040;-79
2022/06/01 13:00:51;;;;;;;2.22;1.10;;;19.60;81.20;;;;;;5012155;28;20630;-80
2022/06/01 13:03:20;;;;;;;2.28;1.00;;;19.60;80.30;;;;;;5016325;28;20025;-83
2022/06/01 13:05:52;;;;;;;1.13;1.00;;;19.70;83.50;;;;;;5016687;28;20076;-78
2022/06/01 13:08:22;;;;;;;1.92;1.00;;;20.00;80.00;;;;;;5010475;28;20138;-81
2022/06/01 13:10:48;;;;;;;1.73;1.10;;;20.50;78.00;;;;;;5008659;28;20052;-81
2022/06/01 13:13:17;;;;;;;2.47;1.02;;;20.90;77.70;;;;;;5013092;28;20030;-81
2022/06/01 13:15:52;;;;;;;2.53;1.00;;;21.40;74.60;;;;;;5014749;28;20041;-82
2022/06/01 13:18:29;;;;;;;1.88;1.05;;;21.90;72.90;;;;;;5006226;28;20041;-80
2022/06/01 13:21:09;;;;;;;1.80;1.08;;;22.10;71.70;;;;;;5008061;28;20057;-81
2022/06/01 13:23:47;;;;;;;1.23;0.77;;;22.10;66.30;;;;;;5014213;28;20087;-81
2022/06/01 13:26:21;;;;;;;1.95;0.80;;;22.20;66.30;;;;;;5023466;28;20519;-81
2022/06/01 13:28:47;;;;;;;1.92;0.65;;;22.10;66.70;;;;;;5011084;28;20453;-81
2022/06/01 13:31:13;;;;;;;2.03;0.80;;;21.90;66.60;;;;;;5012855;28;20151;-80
2022/06/01 13:33:42;;;;;;;1.67;0.90;;;21.90;66.00;;;;;;5021078;28;20060;-81
2022/06/01 13:36:26;;;;;;;4.75;1.00;;;22.10;66.60;;;;;;5016271;28;20041;-81
2022/06/01 13:39:11;;;;;;;1.67;0.80;;;22.20;67.80;;;;;;5008761;28;20099;-81
2022/06/01 13:41:43;;;;;;;1.13;0.73;;;22.50;65.90;;;;;;5014421;28;20230;-84